createdAt,value
2022-12-14T00:00:47.620Z,83.29
2022-12-14T00:01:52.997Z,83.34
2022-12-14T00:02:56.329Z,82.83
2022-12-14T00:03:59.145Z,83.21
2022-12-14T00:05:01.972Z,83.02
2022-12-14T00:06:25.791Z,82.54
2022-12-14T00:07:30.102Z,82.65
2022-12-14T00:08:36.826Z,83.49
2022-12-14T00:09:44.893Z,83.64
2022-12-14T00:10:47.773Z,84.17
2022-12-14T00:11:50.552Z,84.28
2022-12-14T00:12:53.848Z,83.76
2022-12-14T00:13:59.355Z,83.46
2022-12-14T00:15:02.351Z,83.45
2022-12-14T00:16:07.745Z,83.85
2022-12-14T00:17:10.651Z,84.46
2022-12-14T00:18:16.762Z,84.65
2022-12-14T00:19:26.283Z,83.99
2022-12-14T00:20:29.193Z,84.06
2022-12-14T00:21:32.011Z,84.40
2022-12-14T00:22:35.311Z,84.45
2022-12-14T00:23:39.623Z,84.74
2022-12-14T00:24:42.352Z,84.17
2022-12-14T00:25:45.469Z,84.04
2022-12-14T00:26:52.058Z,84.66
2022-12-14T00:27:54.873Z,84.04
2022-12-14T00:28:58.601Z,84.10
2022-12-14T00:30:01.597Z,83.76
2022-12-14T00:31:05.309Z,83.97
2022-12-14T00:32:08.262Z,84.44
2022-12-14T00:33:11.197Z,84.85
2022-12-14T00:34:14.067Z,84.56
2022-12-14T00:35:18.319Z,84.67
2022-12-14T00:36:22.037Z,84.26
2022-12-14T00:37:24.914Z,84.33
2022-12-14T00:38:28.863Z,84.58
2022-12-14T00:39:31.884Z,84.74
2022-12-14T00:40:34.766Z,86.12
2022-12-14T00:41:37.926Z,86.00
2022-12-14T00:42:44.418Z,85.16
2022-12-14T00:43:49.626Z,84.56
2022-12-14T00:44:52.907Z,85.39
2022-12-14T00:45:55.768Z,85.56
2022-12-14T00:46:58.811Z,85.44
2022-12-14T00:48:02.573Z,84.44
2022-12-14T00:49:05.499Z,84.13
2022-12-14T00:50:08.811Z,84.59
2022-12-14T00:51:11.633Z,85.17
2022-12-14T00:52:14.708Z,85.20
2022-12-14T00:53:18.111Z,84.90
2022-12-14T00:54:20.913Z,84.56
2022-12-14T00:55:23.793Z,84.49
2022-12-14T00:56:26.612Z,83.78
2022-12-14T00:57:30.936Z,83.54
2022-12-14T00:58:34.577Z,83.91
2022-12-14T00:59:37.851Z,84.16
2022-12-14T01:00:41.402Z,84.33
2022-12-14T01:01:48.999Z,84.19
2022-12-14T01:02:52.577Z,83.84
2022-12-14T01:04:15.617Z,83.74
2022-12-14T01:05:18.653Z,83.53
2022-12-14T01:06:23.176Z,84.06
2022-12-14T01:07:26.085Z,84.91
2022-12-14T01:08:35.887Z,85.28
2022-12-14T01:09:39.323Z,86.41
2022-12-14T01:10:42.223Z,87.12
2022-12-14T01:11:45.163Z,86.77
2022-12-14T01:12:47.994Z,85.73
2022-12-14T01:13:50.955Z,85.65
2022-12-14T01:14:57.593Z,86.42
2022-12-14T01:16:18.807Z,86.20
2022-12-14T01:17:22.057Z,86.19
2022-12-14T01:18:25.135Z,86.04
2022-12-14T01:19:28.076Z,85.16
2022-12-14T01:20:31.058Z,85.40
2022-12-14T01:21:35.070Z,85.82
2022-12-14T01:22:38.388Z,85.37
2022-12-14T01:23:41.474Z,85.28
2022-12-14T01:24:45.243Z,85.60
2022-12-14T01:25:48.958Z,85.90
2022-12-14T01:26:52.383Z,86.72
2022-12-14T01:27:55.459Z,86.61
2022-12-14T01:28:59.639Z,86.19
2022-12-14T01:30:02.591Z,87.01
2022-12-14T01:31:10.032Z,86.99
2022-12-14T01:32:12.991Z,86.71
2022-12-14T01:33:15.893Z,86.42
2022-12-14T01:34:19.056Z,86.50
2022-12-14T01:35:22.013Z,86.95
2022-12-14T01:36:33.774Z,86.25
2022-12-14T01:37:36.894Z,85.17
2022-12-14T01:38:39.890Z,85.58
2022-12-14T01:39:42.823Z,85.58
2022-12-14T01:40:45.813Z,85.51
2022-12-14T01:41:53.104Z,84.92
2022-12-14T01:42:56.165Z,86.00
2022-12-14T01:44:02.260Z,86.06
2022-12-14T01:45:06.608Z,86.22
2022-12-14T01:46:09.565Z,85.39
2022-12-14T01:47:22.411Z,85.73
2022-12-14T01:48:25.740Z,86.04
2022-12-14T01:50:02.660Z,85.86
2022-12-14T01:51:05.789Z,86.18
2022-12-14T01:52:17.405Z,86.49
2022-12-14T01:53:23.924Z,86.84
2022-12-14T01:54:30.975Z,86.93
2022-12-14T01:55:49.035Z,86.30
2022-12-14T01:56:53.385Z,86.00
2022-12-14T01:58:17.386Z,86.32
2022-12-14T01:59:29.331Z,85.97
2022-12-14T02:00:32.297Z,86.12
2022-12-14T02:01:35.718Z,86.17
2022-12-14T02:02:43.404Z,86.15
2022-12-14T02:03:51.785Z,86.69
2022-12-14T02:04:58.084Z,86.45
2022-12-14T02:06:07.293Z,86.84
2022-12-14T02:07:13.518Z,87.07
2022-12-14T02:08:17.730Z,86.56
2022-12-14T02:09:41.449Z,85.52
2022-12-14T02:10:45.527Z,85.38
2022-12-14T02:12:10.599Z,84.64
2022-12-14T02:13:26.001Z,84.91
2022-12-14T02:14:29.548Z,85.78
2022-12-14T02:15:34.276Z,85.33
2022-12-14T02:16:38.416Z,84.56
2022-12-14T02:17:46.217Z,85.01
2022-12-14T02:18:49.230Z,85.08
2022-12-14T02:19:52.377Z,84.58
2022-12-14T02:21:19.922Z,84.15
2022-12-14T02:22:44.855Z,86.23
2022-12-14T02:24:18.267Z,86.54
2022-12-14T02:25:49.502Z,85.84
2022-12-14T02:27:24.103Z,84.59
2022-12-14T02:29:11.772Z,84.38
2022-12-14T02:30:23.172Z,84.14
2022-12-14T02:31:38.464Z,84.33
2022-12-14T02:32:54.873Z,84.82
2022-12-14T02:34:21.053Z,84.81
2022-12-14T02:35:42.333Z,84.83
2022-12-14T02:36:58.221Z,84.90
2022-12-14T02:38:10.302Z,85.45
2022-12-14T02:39:41.369Z,85.23
2022-12-14T02:41:19.441Z,85.99
2022-12-14T02:42:35.002Z,85.95
2022-12-14T02:43:56.660Z,85.86
2022-12-14T02:45:09.295Z,85.96
2022-12-14T02:46:50.622Z,85.56
2022-12-14T02:48:06.989Z,85.26
2022-12-14T02:49:49.557Z,85.98
2022-12-14T02:51:18.734Z,86.00
2022-12-14T02:52:45.031Z,86.51
2022-12-14T02:53:55.898Z,86.57
2022-12-14T02:55:02.345Z,87.36
2022-12-14T02:56:10.761Z,87.38
2022-12-14T02:57:28.761Z,87.55
2022-12-14T02:58:42.621Z,88.10
2022-12-14T02:59:47.281Z,88.88
2022-12-14T03:00:51.051Z,88.59
2022-12-14T03:01:55.240Z,89.21
2022-12-14T03:02:59.953Z,89.66
2022-12-14T03:04:03.818Z,89.55
2022-12-14T03:05:07.397Z,89.38
2022-12-14T03:06:26.984Z,89.53
2022-12-14T03:07:50.816Z,89.34
2022-12-14T03:09:00.021Z,90.47
2022-12-14T03:10:34.571Z,90.37
2022-12-14T03:11:46.368Z,89.93
2022-12-14T03:12:57.090Z,90.16
2022-12-14T03:14:08.447Z,90.19
2022-12-14T03:15:15.091Z,90.75
2022-12-14T03:16:37.235Z,90.30
2022-12-14T03:17:41.875Z,89.97
2022-12-14T03:19:23.887Z,90.25
2022-12-14T03:20:32.211Z,90.25
2022-12-14T03:21:40.166Z,91.01
2022-12-14T03:23:03.682Z,91.30
2022-12-14T03:24:12.840Z,91.44
2022-12-14T03:25:26.902Z,91.61
2022-12-14T03:26:36.964Z,91.44
2022-12-14T03:27:48.670Z,91.31
2022-12-14T03:28:57.741Z,91.36
2022-12-14T03:30:07.111Z,91.81
2022-12-14T03:31:15.477Z,92.48
2022-12-14T03:32:22.893Z,92.63
2022-12-14T03:33:31.804Z,92.37
2022-12-14T03:34:41.536Z,92.00
2022-12-14T03:35:57.493Z,92.00
2022-12-14T03:37:07.294Z,92.79
2022-12-14T03:38:41.945Z,93.59
2022-12-14T03:39:46.230Z,93.66
2022-12-14T03:41:08.207Z,93.11
2022-12-14T03:42:35.310Z,92.93
2022-12-14T03:43:49.666Z,93.26
2022-12-14T03:44:56.248Z,93.25
2022-12-14T03:46:13.165Z,93.17
2022-12-14T03:47:45.494Z,93.35
2022-12-14T03:48:51.930Z,93.96
2022-12-14T03:50:06.961Z,93.86
2022-12-14T03:51:54.566Z,94.14
2022-12-14T03:53:06.242Z,94.34
2022-12-14T03:54:14.736Z,94.62
2022-12-14T03:55:36.652Z,94.28
2022-12-14T03:56:51.288Z,94.36
2022-12-14T03:58:17.861Z,94.32
2022-12-14T03:59:30.710Z,93.82
2022-12-14T04:00:50.657Z,93.37
2022-12-14T04:02:08.869Z,93.24
2022-12-14T04:03:41.594Z,93.70
2022-12-14T04:04:54.693Z,93.36
2022-12-14T04:06:01.060Z,93.42
2022-12-14T04:07:22.494Z,93.71
2022-12-14T04:08:39.579Z,93.71
2022-12-14T04:09:57.897Z,93.57
2022-12-14T04:11:23.893Z,93.51
2022-12-14T04:12:55.679Z,93.32
2022-12-14T04:14:36.485Z,93.25
2022-12-14T04:15:59.790Z,92.96
2022-12-14T04:17:29.679Z,93.48
2022-12-14T04:18:59.781Z,93.25
2022-12-14T04:20:10.015Z,92.49
2022-12-14T04:21:33.104Z,92.40
2022-12-14T04:22:43.076Z,92.02
2022-12-14T04:24:09.255Z,92.71
2022-12-14T04:25:49.254Z,93.58
2022-12-14T04:27:19.069Z,93.36
2022-12-14T04:28:50.664Z,92.71
2022-12-14T04:29:59.354Z,92.50
2022-12-14T04:31:08.175Z,92.07
2022-12-14T04:32:21.828Z,91.74
2022-12-14T04:33:43.891Z,91.13
2022-12-14T04:34:51.331Z,90.87
2022-12-14T04:35:58.473Z,90.36
2022-12-14T04:37:06.569Z,90.40
2022-12-14T04:38:23.588Z,90.36
2022-12-14T04:39:56.695Z,90.72
2022-12-14T04:41:04.384Z,90.64
2022-12-14T04:42:13.766Z,90.93
2022-12-14T04:43:24.348Z,90.89
2022-12-14T04:44:34.495Z,91.49
2022-12-14T04:45:43.680Z,91.82
2022-12-14T04:46:51.529Z,91.92
2022-12-14T04:48:05.935Z,91.70
2022-12-14T04:49:24.129Z,91.13
2022-12-14T04:50:35.849Z,91.50
2022-12-14T04:52:01.948Z,92.21
2022-12-14T04:53:17.368Z,92.23
2022-12-14T04:54:26.733Z,92.50
2022-12-14T04:55:42.651Z,92.58
2022-12-14T04:56:58.114Z,92.34
2022-12-14T04:58:29.138Z,91.68
2022-12-14T04:59:32.506Z,91.72
2022-12-14T05:00:42.616Z,91.99
2022-12-14T05:02:01.192Z,92.28
2022-12-14T05:03:31.849Z,92.38
2022-12-14T05:05:05.341Z,92.50
2022-12-14T05:06:17.366Z,92.32
2022-12-14T05:07:52.539Z,92.76
2022-12-14T05:09:13.458Z,92.54
2022-12-14T05:10:45.189Z,92.55
2022-12-14T05:11:58.240Z,91.83
2022-12-14T05:13:13.707Z,91.82
2022-12-14T05:15:04.390Z,91.66
2022-12-14T05:16:08.007Z,92.91
2022-12-14T05:17:11.716Z,92.71
2022-12-14T05:18:15.394Z,93.47
2022-12-14T05:19:18.531Z,94.02
2022-12-14T05:20:24.770Z,93.57
2022-12-14T05:21:46.606Z,93.25
2022-12-14T05:22:50.274Z,92.68
2022-12-14T05:23:53.204Z,92.07
2022-12-14T05:24:56.182Z,92.27
2022-12-14T05:25:59.172Z,92.17
2022-12-14T05:27:05.348Z,92.52
2022-12-14T05:28:08.981Z,93.09
2022-12-14T05:29:12.336Z,92.30
2022-12-14T05:30:16.007Z,92.14
2022-12-14T05:31:20.399Z,91.59
2022-12-14T05:32:23.827Z,91.59
2022-12-14T05:33:27.171Z,91.76
2022-12-14T05:34:30.978Z,92.54
2022-12-14T05:35:33.987Z,92.73
2022-12-14T05:36:37.559Z,93.17
2022-12-14T05:37:41.298Z,93.18
2022-12-14T05:38:44.683Z,92.89
2022-12-14T05:39:48.044Z,92.74
2022-12-14T05:40:50.929Z,92.43
2022-12-14T05:41:53.811Z,91.80
2022-12-14T05:43:15.525Z,91.52
2022-12-14T05:44:18.565Z,91.77
2022-12-14T05:45:21.507Z,92.05
2022-12-14T05:46:24.506Z,91.62
2022-12-14T05:47:33.745Z,91.37
2022-12-14T05:48:36.755Z,90.82
2022-12-14T05:50:51.399Z,91.06
2022-12-14T05:51:54.341Z,90.93
2022-12-14T05:52:57.373Z,90.85
2022-12-14T05:54:00.274Z,90.26
2022-12-14T05:55:04.693Z,90.12
2022-12-14T05:56:10.386Z,89.99
2022-12-14T05:57:13.510Z,89.56
2022-12-14T05:58:20.652Z,90.19
2022-12-14T05:59:23.657Z,90.38
2022-12-14T06:00:27.561Z,90.09
2022-12-14T06:01:30.891Z,90.37
2022-12-14T06:02:37.613Z,90.66
2022-12-14T06:03:40.688Z,90.51
2022-12-14T06:04:43.630Z,90.45
2022-12-14T06:05:47.644Z,90.27
2022-12-14T06:06:50.719Z,90.00
2022-12-14T06:07:54.488Z,89.63
2022-12-14T06:08:57.496Z,89.43
2022-12-14T06:10:00.445Z,89.87
2022-12-14T06:11:18.554Z,89.93
2022-12-14T06:12:21.497Z,90.24
2022-12-14T06:13:24.757Z,90.38
2022-12-14T06:14:27.906Z,89.83
2022-12-14T06:15:34.081Z,89.48
2022-12-14T06:16:41.647Z,89.50
2022-12-14T06:17:46.347Z,89.47
2022-12-14T06:18:54.206Z,89.47
2022-12-14T06:19:57.305Z,90.26
2022-12-14T06:21:01.335Z,90.44
2022-12-14T06:22:04.439Z,90.61
2022-12-14T06:23:07.447Z,90.51
2022-12-14T06:24:12.515Z,90.22
2022-12-14T06:25:16.058Z,90.44
2022-12-14T06:26:19.180Z,90.48
2022-12-14T06:27:22.248Z,89.93
2022-12-14T06:28:25.308Z,89.75
2022-12-14T06:29:28.621Z,90.03
2022-12-14T06:30:31.574Z,90.29
2022-12-14T06:31:35.335Z,90.18
2022-12-14T06:32:38.392Z,90.27
2022-12-14T06:33:41.517Z,89.53
2022-12-14T06:34:45.905Z,89.08
2022-12-14T06:35:50.601Z,89.14
2022-12-14T06:36:53.609Z,88.94
2022-12-14T06:37:56.515Z,88.73
2022-12-14T06:39:04.237Z,88.90
2022-12-14T06:40:07.791Z,88.63
2022-12-14T06:41:10.900Z,88.99
2022-12-14T06:42:13.740Z,88.42
2022-12-14T06:43:18.604Z,88.24
2022-12-14T06:44:21.510Z,88.73
2022-12-14T06:45:24.574Z,88.63
2022-12-14T06:46:27.513Z,88.74
2022-12-14T06:47:34.873Z,88.85
2022-12-14T06:48:37.824Z,89.24
2022-12-14T06:49:40.792Z,89.15
2022-12-14T06:50:43.601Z,89.46
2022-12-14T06:51:46.601Z,89.26
2022-12-14T06:52:50.047Z,89.08
2022-12-14T06:53:58.642Z,89.33
2022-12-14T06:55:01.550Z,89.16
2022-12-14T06:56:17.773Z,88.72
2022-12-14T06:57:20.811Z,88.84
2022-12-14T06:58:26.831Z,88.65
2022-12-14T06:59:33.918Z,88.70
2022-12-14T07:00:36.773Z,88.69
2022-12-14T07:01:40.768Z,88.55
2022-12-14T07:02:44.052Z,88.74
2022-12-14T07:03:57.966Z,89.01
2022-12-14T07:05:01.152Z,88.37
2022-12-14T07:06:04.923Z,88.43
2022-12-14T07:07:08.004Z,88.14
2022-12-14T07:08:11.061Z,88.17
2022-12-14T07:09:18.397Z,88.75
2022-12-14T07:10:21.408Z,88.17
2022-12-14T07:11:26.120Z,87.82
2022-12-14T07:12:29.343Z,88.18
2022-12-14T07:13:32.365Z,88.01
2022-12-14T07:14:35.700Z,87.96
2022-12-14T07:15:39.833Z,87.87
2022-12-14T07:16:46.508Z,88.55
2022-12-14T07:17:51.391Z,88.60
2022-12-14T07:18:55.605Z,89.06
2022-12-14T07:19:58.755Z,88.48
2022-12-14T07:21:07.278Z,87.71
2022-12-14T07:22:10.225Z,87.33
2022-12-14T07:23:13.137Z,88.41
2022-12-14T07:24:16.109Z,88.27
2022-12-14T07:25:20.689Z,88.37
2022-12-14T07:26:27.797Z,88.60
2022-12-14T07:27:30.774Z,87.98
2022-12-14T07:28:34.413Z,88.61
2022-12-14T07:29:37.400Z,88.58
2022-12-14T07:30:42.387Z,88.63
2022-12-14T07:31:45.228Z,88.54
2022-12-14T07:32:52.567Z,87.75
2022-12-14T07:33:57.470Z,87.82
2022-12-14T07:35:00.410Z,87.53
2022-12-14T07:36:14.317Z,87.25
2022-12-14T07:37:17.435Z,87.30
2022-12-14T07:38:20.664Z,87.45
2022-12-14T07:39:23.617Z,88.18
2022-12-14T07:40:26.472Z,89.04
2022-12-14T07:41:31.834Z,89.01
2022-12-14T07:42:34.653Z,88.37
2022-12-14T07:43:38.290Z,88.07
2022-12-14T07:44:41.570Z,87.49
2022-12-14T07:45:44.432Z,87.94
2022-12-14T07:46:47.566Z,88.57
2022-12-14T07:47:50.478Z,87.73
2022-12-14T07:48:55.340Z,87.17
2022-12-14T07:49:58.273Z,87.58
2022-12-14T07:51:06.951Z,87.72
2022-12-14T07:52:09.838Z,87.58
2022-12-14T07:53:13.324Z,88.04
2022-12-14T07:54:16.253Z,87.70
2022-12-14T07:55:19.245Z,87.72
2022-12-14T07:56:25.348Z,87.63
2022-12-14T07:57:28.297Z,87.18
2022-12-14T07:58:32.984Z,86.94
2022-12-14T07:59:36.357Z,86.57
2022-12-14T08:00:39.420Z,86.27
2022-12-14T08:01:43.899Z,86.17
2022-12-14T08:02:47.109Z,86.59
2022-12-14T08:03:56.179Z,86.36
2022-12-14T08:04:59.286Z,86.08
2022-12-14T08:06:09.648Z,86.76
2022-12-14T08:07:12.552Z,86.72
2022-12-14T08:08:15.478Z,86.97
2022-12-14T08:09:20.334Z,86.68
2022-12-14T08:10:23.550Z,86.64
2022-12-14T08:11:27.358Z,86.39
2022-12-14T08:12:30.351Z,85.65
2022-12-14T08:13:33.854Z,85.47
2022-12-14T08:14:36.898Z,85.42
2022-12-14T08:15:39.885Z,85.84
2022-12-14T08:16:43.893Z,85.32
2022-12-14T08:17:46.860Z,85.12
2022-12-14T08:18:51.073Z,85.50
2022-12-14T08:19:54.124Z,85.59
2022-12-14T08:20:57.154Z,85.21
2022-12-14T08:22:00.148Z,85.08
2022-12-14T08:23:03.970Z,84.77
2022-12-14T08:24:07.825Z,84.87
2022-12-14T08:25:10.779Z,85.15
2022-12-14T08:26:13.772Z,85.14
2022-12-14T08:27:16.923Z,85.45
2022-12-14T08:28:19.828Z,85.10
2022-12-14T08:29:22.730Z,84.82
2022-12-14T08:30:25.765Z,85.35
2022-12-14T08:31:29.551Z,84.85
2022-12-14T08:32:34.425Z,84.66
2022-12-14T08:33:39.936Z,84.43
2022-12-14T08:34:42.887Z,84.60
2022-12-14T08:35:46.531Z,84.08
2022-12-14T08:36:53.443Z,84.53
2022-12-14T08:37:56.285Z,83.99
2022-12-14T08:39:01.620Z,83.64
2022-12-14T08:40:04.847Z,83.49
2022-12-14T08:41:10.727Z,83.09
2022-12-14T08:42:13.579Z,83.25
2022-12-14T08:43:19.059Z,83.77
2022-12-14T08:44:26.227Z,83.92
2022-12-14T08:45:29.078Z,83.28
2022-12-14T08:46:34.051Z,83.18
2022-12-14T08:47:36.879Z,83.14
2022-12-14T08:48:39.862Z,83.20
2022-12-14T08:49:42.799Z,82.81
2022-12-14T08:50:46.006Z,82.94
2022-12-14T08:51:52.902Z,82.88
2022-12-14T08:52:56.382Z,84.18
2022-12-14T08:53:59.623Z,84.23
2022-12-14T08:55:02.548Z,84.17
2022-12-14T08:56:10.928Z,83.31
2022-12-14T08:57:14.072Z,84.14
2022-12-14T08:58:16.812Z,83.70
2022-12-14T08:59:37.104Z,83.23
2022-12-14T09:00:43.613Z,83.49
2022-12-14T09:01:46.804Z,83.34
2022-12-14T09:02:51.324Z,82.98
2022-12-14T09:03:54.444Z,83.18
2022-12-14T09:04:57.370Z,83.29
2022-12-14T09:06:08.741Z,83.11
2022-12-14T09:07:11.735Z,83.43
2022-12-14T09:08:14.649Z,83.10
2022-12-14T09:09:17.528Z,83.34
2022-12-14T09:10:20.332Z,82.71
2022-12-14T09:11:23.256Z,83.12
2022-12-14T09:12:25.997Z,82.61
2022-12-14T09:13:29.986Z,82.98
2022-12-14T09:14:37.178Z,83.00
2022-12-14T09:15:40.114Z,82.82
2022-12-14T09:16:43.032Z,83.04
2022-12-14T09:17:46.027Z,83.37
2022-12-14T09:18:50.577Z,83.64
2022-12-14T09:19:53.584Z,83.44
2022-12-14T09:20:58.064Z,83.83
2022-12-14T09:22:01.108Z,83.75
2022-12-14T09:23:10.370Z,83.68
2022-12-14T09:24:13.227Z,83.38
2022-12-14T09:25:19.439Z,83.76
2022-12-14T09:26:23.927Z,84.11
2022-12-14T09:27:26.861Z,83.43
2022-12-14T09:28:31.033Z,83.46
2022-12-14T09:29:33.899Z,83.62
2022-12-14T09:30:37.030Z,83.07
2022-12-14T09:31:40.042Z,82.33
2022-12-14T09:32:45.171Z,83.11
2022-12-14T09:33:58.565Z,83.05
2022-12-14T09:35:01.560Z,82.22
2022-12-14T09:36:08.935Z,82.13
2022-12-14T09:37:12.854Z,82.49
2022-12-14T09:38:16.005Z,82.43
2022-12-14T09:39:19.355Z,82.49
2022-12-14T09:40:26.156Z,83.35
2022-12-14T09:41:41.756Z,83.12
2022-12-14T09:43:01.554Z,83.23
2022-12-14T09:44:32.906Z,82.38
2022-12-14T09:45:48.922Z,82.51
2022-12-14T09:47:17.411Z,82.28
2022-12-14T09:48:25.464Z,82.85
2022-12-14T09:49:40.357Z,82.41
2022-12-14T09:50:51.268Z,82.48
2022-12-14T09:51:56.555Z,82.20
2022-12-14T09:53:07.523Z,82.02
2022-12-14T09:54:15.737Z,82.40
2022-12-14T09:55:34.821Z,81.19
2022-12-14T09:56:38.746Z,82.16
2022-12-14T09:57:44.065Z,82.31
2022-12-14T09:58:59.485Z,80.89
2022-12-14T10:00:02.506Z,81.46
2022-12-14T10:01:09.365Z,83.08
2022-12-14T10:02:32.186Z,82.23
2022-12-14T10:03:51.187Z,81.88
2022-12-14T10:05:06.497Z,81.80
2022-12-14T10:06:45.409Z,82.03
2022-12-14T10:08:18.469Z,81.78
2022-12-14T10:09:29.758Z,81.72
2022-12-14T10:11:15.295Z,81.28
2022-12-14T10:12:40.387Z,81.85
2022-12-14T10:14:08.970Z,81.99
2022-12-14T10:15:40.739Z,81.37
2022-12-14T10:16:55.278Z,80.82
2022-12-14T10:18:11.219Z,81.11
2022-12-14T10:19:39.333Z,81.70
2022-12-14T10:21:05.419Z,81.67
2022-12-14T10:22:18.127Z,81.22
2022-12-14T10:23:26.380Z,81.28
2022-12-14T10:24:43.834Z,80.85
2022-12-14T10:25:50.287Z,80.66
2022-12-14T10:26:55.343Z,81.30
2022-12-14T10:28:11.511Z,81.64
2022-12-14T10:29:21.685Z,81.34
2022-12-14T10:30:25.371Z,81.02
2022-12-14T10:32:03.757Z,81.33
2022-12-14T10:33:17.719Z,82.23
2022-12-14T10:34:23.852Z,81.44
2022-12-14T10:35:35.891Z,81.09
2022-12-14T10:36:55.439Z,80.94
2022-12-14T10:38:06.923Z,81.17
2022-12-14T10:39:57.548Z,81.67
2022-12-14T10:41:14.030Z,81.40
2022-12-14T10:42:50.673Z,82.01
2022-12-14T10:44:04.163Z,82.28
2022-12-14T10:45:42.099Z,81.44
2022-12-14T10:46:57.455Z,81.38
2022-12-14T10:48:15.181Z,80.77
2022-12-14T10:49:38.468Z,80.97
2022-12-14T10:51:03.890Z,80.95
2022-12-14T10:52:15.120Z,81.08
2022-12-14T10:53:24.207Z,80.65
2022-12-14T10:54:38.811Z,80.27
2022-12-14T10:55:44.528Z,81.16
2022-12-14T10:56:50.717Z,81.20
2022-12-14T10:57:53.795Z,80.93
2022-12-14T10:59:24.261Z,80.88
2022-12-14T11:00:28.060Z,81.75
2022-12-14T11:01:31.498Z,81.66
2022-12-14T11:02:39.329Z,80.85
2022-12-14T11:03:44.108Z,81.44
2022-12-14T11:04:55.933Z,81.51
2022-12-14T11:06:11.008Z,82.37
2022-12-14T11:07:16.374Z,82.50
2022-12-14T11:08:48.073Z,82.20
2022-12-14T11:09:52.418Z,81.72
2022-12-14T11:11:18.829Z,81.99
2022-12-14T11:12:26.328Z,81.99
2022-12-14T11:13:29.300Z,81.87
2022-12-14T11:14:32.641Z,81.07
2022-12-14T11:15:40.491Z,80.02
2022-12-14T11:16:43.853Z,80.88
2022-12-14T11:17:47.257Z,81.00
2022-12-14T11:18:59.607Z,79.51
2022-12-14T11:20:25.566Z,79.57
2022-12-14T11:21:37.935Z,80.13
2022-12-14T11:23:08.356Z,80.42
2022-12-14T11:24:31.666Z,81.13
2022-12-14T11:25:43.997Z,81.07
2022-12-14T11:26:46.861Z,80.09
2022-12-14T11:27:50.103Z,79.87
2022-12-14T11:28:54.854Z,79.84
2022-12-14T11:29:58.265Z,79.92
2022-12-14T11:31:12.693Z,79.97
2022-12-14T11:32:23.185Z,79.49
2022-12-14T11:33:33.349Z,79.39
2022-12-14T11:34:39.595Z,79.93
2022-12-14T11:35:50.920Z,80.54
2022-12-14T11:36:53.961Z,79.52
2022-12-14T11:38:00.402Z,79.77
2022-12-14T11:39:15.798Z,80.21
2022-12-14T11:40:28.005Z,78.91
2022-12-14T11:41:50.175Z,78.99
2022-12-14T11:43:03.913Z,79.85
2022-12-14T11:44:18.441Z,79.49
2022-12-14T11:45:27.308Z,78.36
2022-12-14T11:46:59.300Z,78.56
2022-12-14T11:48:14.535Z,79.41
2022-12-14T11:49:40.449Z,78.15
2022-12-14T11:50:45.679Z,78.72
2022-12-14T11:52:01.368Z,77.85
2022-12-14T11:53:11.190Z,78.12
2022-12-14T11:54:16.063Z,79.17
2022-12-14T11:55:26.756Z,80.19
2022-12-14T11:56:33.643Z,78.98
2022-12-14T11:57:54.446Z,77.46
2022-12-14T11:59:00.680Z,78.08
2022-12-14T12:00:08.568Z,77.79
2022-12-14T12:01:24.520Z,77.40
2022-12-14T12:02:35.601Z,78.48
2022-12-14T12:03:47.017Z,78.33
2022-12-14T12:04:56.338Z,77.86
2022-12-14T12:06:06.920Z,77.03
2022-12-14T12:07:25.825Z,77.04
2022-12-14T12:08:32.455Z,77.99
2022-12-14T12:09:36.318Z,76.25
2022-12-14T12:10:49.949Z,76.49
2022-12-14T12:11:53.695Z,78.44
2022-12-14T12:12:58.420Z,79.41
2022-12-14T12:14:21.239Z,79.46
2022-12-14T12:15:38.509Z,78.50
2022-12-14T12:16:43.853Z,78.27
2022-12-14T12:17:51.173Z,78.21
2022-12-14T12:19:31.076Z,77.49
2022-12-14T12:20:40.350Z,79.15
2022-12-14T12:21:45.342Z,77.18
2022-12-14T12:22:51.987Z,77.23
2022-12-14T12:24:12.709Z,78.14
2022-12-14T12:25:29.640Z,78.20
2022-12-14T12:26:57.033Z,78.23
2022-12-14T12:28:33.330Z,77.68
2022-12-14T12:29:51.656Z,78.92
2022-12-14T12:31:10.870Z,80.11
2022-12-14T12:32:20.225Z,80.14
2022-12-14T12:33:43.289Z,80.05
2022-12-14T12:35:01.367Z,80.36
2022-12-14T12:36:11.322Z,79.75
2022-12-14T12:37:26.390Z,78.57
2022-12-14T12:38:50.287Z,79.73
2022-12-14T12:39:59.418Z,79.96
2022-12-14T12:41:13.872Z,79.93
2022-12-14T12:42:40.421Z,80.15
2022-12-14T12:43:50.063Z,79.84
2022-12-14T12:45:07.279Z,79.39
2022-12-14T12:46:30.100Z,79.48
2022-12-14T12:47:47.317Z,80.37
2022-12-14T12:48:57.993Z,80.30
2022-12-14T12:50:06.639Z,80.16
2022-12-14T12:51:35.815Z,79.97
2022-12-14T12:53:03.630Z,79.17
2022-12-14T12:54:15.030Z,79.59
2022-12-14T12:55:20.344Z,79.21
2022-12-14T12:56:48.199Z,78.93
2022-12-14T12:57:54.607Z,79.87
2022-12-14T12:59:00.526Z,80.61
2022-12-14T13:00:06.741Z,80.58
2022-12-14T13:01:35.305Z,80.50
2022-12-14T13:02:50.322Z,80.25
2022-12-14T13:03:59.158Z,79.51
2022-12-14T13:05:46.303Z,80.23
2022-12-14T13:06:56.695Z,79.85
2022-12-14T13:08:07.248Z,78.92
2022-12-14T13:09:29.107Z,78.85
2022-12-14T13:10:55.773Z,79.24
2022-12-14T13:12:08.231Z,78.97
2022-12-14T13:13:18.784Z,80.08
2022-12-14T13:14:31.652Z,80.52
2022-12-14T13:16:07.335Z,79.96
2022-12-14T13:17:27.476Z,80.12
2022-12-14T13:18:59.598Z,80.33
2022-12-14T13:20:07.408Z,80.42
2022-12-14T13:21:27.680Z,79.94
2022-12-14T13:22:35.943Z,80.05
2022-12-14T13:23:46.313Z,79.94
2022-12-14T13:24:58.639Z,79.12
2022-12-14T13:26:28.100Z,78.90
2022-12-14T13:27:50.787Z,79.64
2022-12-14T13:29:21.496Z,79.17
2022-12-14T13:30:31.289Z,77.79
2022-12-14T13:31:43.791Z,77.36
2022-12-14T13:32:46.551Z,77.44
2022-12-14T13:34:07.614Z,77.39
2022-12-14T13:35:32.410Z,77.96
2022-12-14T13:37:00.499Z,79.02
2022-12-14T13:38:27.770Z,79.07
2022-12-14T13:39:54.864Z,79.19
2022-12-14T13:41:21.561Z,79.29
2022-12-14T13:42:52.337Z,79.61
2022-12-14T13:44:26.941Z,79.98
2022-12-14T13:45:46.121Z,79.77
2022-12-14T13:47:02.265Z,79.09
2022-12-14T13:48:09.616Z,79.91
2022-12-14T13:49:22.514Z,79.81
2022-12-14T13:50:37.114Z,80.02
2022-12-14T13:51:46.909Z,80.15
2022-12-14T13:52:59.339Z,80.23
2022-12-14T13:54:06.870Z,79.72
2022-12-14T13:55:36.403Z,79.18
2022-12-14T13:56:43.581Z,79.80
2022-12-14T13:57:46.540Z,79.93
2022-12-14T13:58:55.756Z,79.57
2022-12-14T14:00:00.743Z,79.17
2022-12-14T14:01:07.849Z,78.74
2022-12-14T14:02:32.703Z,78.47
2022-12-14T14:03:35.801Z,79.52
2022-12-14T14:04:39.005Z,78.94
2022-12-14T14:05:45.846Z,79.19
2022-12-14T14:06:54.466Z,78.41
2022-12-14T14:08:01.735Z,78.78
2022-12-14T14:09:26.076Z,78.67
2022-12-14T14:10:38.625Z,79.46
2022-12-14T14:11:41.415Z,80.17
2022-12-14T14:12:45.184Z,80.24
2022-12-14T14:13:49.683Z,80.95
2022-12-14T14:15:04.122Z,80.71
2022-12-14T14:16:30.837Z,80.78
2022-12-14T14:17:43.598Z,80.61
2022-12-14T14:18:52.072Z,80.39
2022-12-14T14:19:56.688Z,80.61
2022-12-14T14:21:21.103Z,79.39
2022-12-14T14:22:27.642Z,78.87
2022-12-14T14:23:33.357Z,79.53
2022-12-14T14:24:56.588Z,80.03
2022-12-14T14:26:18.151Z,79.32
2022-12-14T14:27:24.856Z,79.06
2022-12-14T14:28:30.741Z,79.16
2022-12-14T14:29:34.857Z,79.79
2022-12-14T14:30:59.923Z,79.73
2022-12-14T14:32:06.214Z,79.93
2022-12-14T14:33:45.324Z,79.72
2022-12-14T14:34:51.354Z,79.77
2022-12-14T14:36:12.112Z,80.46
2022-12-14T14:37:22.461Z,80.06
2022-12-14T14:38:32.598Z,79.89
2022-12-14T14:39:57.731Z,79.91
2022-12-14T14:41:19.085Z,79.82
2022-12-14T14:42:26.186Z,79.61
2022-12-14T14:43:37.577Z,79.62
2022-12-14T14:45:02.446Z,80.55
2022-12-14T14:46:10.967Z,80.60
2022-12-14T14:47:23.237Z,79.98
2022-12-14T14:48:40.952Z,80.16
2022-12-14T14:49:44.442Z,80.25
2022-12-14T14:50:49.050Z,80.94
2022-12-14T14:51:52.241Z,80.71
2022-12-14T14:53:11.131Z,80.40
2022-12-14T14:54:37.566Z,79.52
2022-12-14T14:55:54.691Z,79.09
2022-12-14T14:57:00.945Z,79.98
2022-12-14T14:58:09.580Z,80.43
2022-12-14T14:59:15.073Z,80.58
2022-12-14T15:00:18.277Z,80.05
2022-12-14T15:01:28.291Z,80.42
2022-12-14T15:02:41.457Z,80.54
2022-12-14T15:03:57.330Z,80.28
2022-12-14T15:05:24.775Z,80.69
2022-12-14T15:06:29.091Z,80.74
2022-12-14T15:07:32.768Z,80.89
2022-12-14T15:08:40.156Z,80.78
2022-12-14T15:10:05.512Z,80.82
2022-12-14T15:11:20.699Z,80.59